Time;durP1;ratioP1;P1;durP2;ratioP2;P2;SDS_P1;SDS_P2;PMS_P1;PMS_P2;Temp;Humidity;BMP_temperature;BMP_pressure;BME280_temperature;BME280_humidity;BME280_pressure;Samples;Min_cycle;Max_cycle;Signal;HPM_P1;HPM_P2
2023/07/30 00:01:59;;;;;;;6.40;3.00;;;15.20;99.90;;;;;;5072376;28;20064;-82
2023/07/30 00:04:25;;;;;;;5.97;2.88;;;15.10;99.90;;;;;;5071863;28;20040;-80
2023/07/30 00:06:50;;;;;;;5.53;2.40;;;15.00;99.90;;;;;;5072361;28;20044;-81
2023/07/30 00:09:16;;;;;;;7.32;2.80;;;14.90;99.90;;;;;;5072312;28;20124;-81
2023/07/30 00:11:42;;;;;;;5.80;3.17;;;14.90;99.90;;;;;;5072047;28;20377;-82
2023/07/30 00:14:08;;;;;;;6.65;2.85;;;15.00;99.90;;;;;;5071953;28;20114;-81
2023/07/30 00:16:33;;;;;;;6.00;3.00;;;15.00;99.90;;;;;;5072718;28;20358;-80
2023/07/30 00:18:59;;;;;;;6.35;3.10;;;15.10;99.90;;;;;;5071142;28;20408;-81
2023/07/30 00:21:25;;;;;;;6.13;2.83;;;15.10;99.90;;;;;;5073143;28;20048;-81
2023/07/30 00:23:50;;;;;;;6.93;2.70;;;15.10;99.90;;;;;;5071391;28;20044;-82
2023/07/30 00:26:16;;;;;;;4.85;2.80;;;15.10;99.90;;;;;;5071130;28;20044;-84
2023/07/30 00:28:41;;;;;;;5.43;2.88;;;15.10;99.90;;;;;;5071954;28;20059;-81
2023/07/30 00:31:07;;;;;;;5.80;2.45;;;15.10;99.90;;;;;;5072302;28;20056;-81
2023/07/30 00:33:33;;;;;;;5.90;2.90;;;15.10;99.90;;;;;;5072498;28;20125;-79
2023/07/30 00:35:59;;;;;;;6.55;2.70;;;15.10;99.90;;;;;;5071986;28;20492;-80
2023/07/30 00:38:24;;;;;;;6.55;2.80;;;15.00;99.90;;;;;;5071727;28;20373;-82
2023/07/30 00:40:50;;;;;;;5.35;3.03;;;15.00;99.90;;;;;;5072061;28;20040;-80
2023/07/30 00:43:16;;;;;;;5.43;3.05;;;15.00;99.90;;;;;;5072790;28;20040;-81
2023/07/30 00:45:44;;;;;;;5.40;3.05;;;14.90;99.90;;;;;;5072512;28;20049;-78
2023/07/30 00:48:11;;;;;;;6.38;2.70;;;14.90;99.90;;;;;;5071089;28;20059;-81
2023/07/30 00:50:37;;;;;;;6.28;3.30;;;14.90;99.90;;;;;;5072085;28;20119;-82
2023/07/30 00:53:04;;;;;;;6.18;3.05;;;14.90;99.90;;;;;;5072370;28;20040;-81
2023/07/30 00:55:30;;;;;;;5.50;2.58;;;14.80;99.90;;;;;;5072666;28;20040;-81
2023/07/30 00:57:57;;;;;;;7.45;3.03;;;14.70;99.90;;;;;;5071963;28;20040;-81
2023/07/30 01:00:24;;;;;;;5.38;2.90;;;14.80;99.90;;;;;;5072411;28;20116;-82
2023/07/30 01:02:51;;;;;;;5.78;2.80;;;14.70;99.90;;;;;;5072072;28;20036;-81
2023/07/30 01:05:17;;;;;;;7.95;2.88;;;14.70;99.90;;;;;;5072284;28;20082;-80
2023/07/30 01:07:43;;;;;;;4.85;2.83;;;14.70;99.90;;;;;;5072250;28;20044;-81
2023/07/30 01:10:09;;;;;;;8.05;2.75;;;14.70;99.90;;;;;;5072073;28;20098;-82
2023/07/30 01:12:36;;;;;;;5.68;2.83;;;14.60;99.90;;;;;;5071947;28;20439;-80
2023/07/30 01:15:04;;;;;;;5.80;2.97;;;14.70;99.90;;;;;;5072282;28;20044;-81
2023/07/30 01:17:29;;;;;;;7.57;3.30;;;14.60;99.90;;;;;;5072323;28;20044;-80
2023/07/30 01:19:55;;;;;;;5.72;3.05;;;14.60;99.90;;;;;;5072260;28;20037;-81
2023/07/30 01:22:22;;;;;;;6.35;2.60;;;14.60;99.90;;;;;;5071978;28;20483;-82
2023/07/30 01:24:48;;;;;;;7.93;2.97;;;14.50;99.90;;;;;;5067967;28;20040;-80
2023/07/30 01:27:27;;;;;;;6.32;2.60;;;14.50;99.90;;;;;;5070865;28;20045;-83
2023/07/30 01:29:59;;;;;;;8.60;2.80;;;14.50;99.90;;;;;;5060329;28;20055;-81
2023/07/30 01:32:26;;;;;;;7.03;3.15;;;14.50;99.90;;;;;;5072022;28;20048;-82
2023/07/30 01:34:57;;;;;;;8.05;2.50;;;14.50;99.90;;;;;;5071125;28;20115;-81
2023/07/30 01:37:24;;;;;;;8.88;3.65;;;14.50;99.90;;;;;;5063702;28;20036;-82
2023/07/30 01:39:50;;;;;;;5.63;2.60;;;14.50;99.90;;;;;;5072044;28;20090;-82
2023/07/30 01:42:17;;;;;;;9.82;2.97;;;14.60;99.90;;;;;;5071667;28;20045;-82
2023/07/30 01:44:43;;;;;;;8.18;2.97;;;14.50;99.90;;;;;;5072005;28;20124;-81
2023/07/30 01:47:09;;;;;;;5.68;2.40;;;14.50;99.90;;;;;;5071168;28;20165;-81
2023/07/30 01:49:34;;;;;;;6.18;2.47;;;14.50;99.90;;;;;;5072002;28;20037;-82
2023/07/30 01:52:00;;;;;;;8.23;2.90;;;14.50;99.90;;;;;;5073551;28;20158;-81
2023/07/30 01:54:26;;;;;;;6.20;2.47;;;14.50;99.90;;;;;;5075483;28;20044;-80
2023/07/30 01:56:52;;;;;;;7.70;2.22;;;14.50;99.90;;;;;;5075268;28;20090;-81
2023/07/30 01:59:18;;;;;;;9.35;2.70;;;14.50;99.90;;;;;;5074943;28;20048;-81
2023/07/30 02:01:44;;;;;;;4.85;2.33;;;14.50;99.90;;;;;;5075033;28;20116;-82
2023/07/30 02:04:10;;;;;;;7.35;2.60;;;14.50;99.90;;;;;;5075243;28;20049;-82
2023/07/30 02:06:36;;;;;;;4.68;2.05;;;14.50;99.90;;;;;;5074798;28;20040;-81
2023/07/30 02:09:02;;;;;;;5.78;2.25;;;14.50;99.90;;;;;;5073982;28;20033;-82
2023/07/30 02:11:28;;;;;;;9.52;2.90;;;14.50;99.90;;;;;;5074760;28;20048;-79
2023/07/30 02:13:54;;;;;;;6.43;2.20;;;14.50;99.90;;;;;;5075190;28;20464;-81
2023/07/30 02:16:19;;;;;;;6.15;2.00;;;14.50;99.90;;;;;;5075052;28;20119;-83
2023/07/30 02:18:45;;;;;;;7.13;2.22;;;14.40;99.90;;;;;;5073312;28;20075;-81
2023/07/30 02:21:11;;;;;;;5.50;2.42;;;14.50;99.90;;;;;;5074404;28;20115;-81
2023/07/30 02:23:37;;;;;;;3.53;2.10;;;14.50;99.90;;;;;;5074518;28;20040;-81
2023/07/30 02:26:02;;;;;;;8.05;2.60;;;14.40;99.90;;;;;;5074503;28;20047;-82
2023/07/30 02:28:28;;;;;;;6.57;2.38;;;14.40;99.90;;;;;;5074491;28;20056;-81
2023/07/30 02:30:53;;;;;;;7.88;2.25;;;14.40;99.90;;;;;;5073737;28;20045;-83
2023/07/30 02:33:19;;;;;;;4.75;2.00;;;14.40;99.90;;;;;;5074899;28;20076;-83
2023/07/30 02:35:45;;;;;;;5.32;2.20;;;14.40;99.90;;;;;;5073513;28;20048;-81
2023/07/30 02:38:11;;;;;;;4.82;2.20;;;14.40;99.90;;;;;;5071408;28;20496;-82
2023/07/30 02:40:39;;;;;;;4.13;1.92;;;14.40;99.90;;;;;;5074630;28;20047;-83
2023/07/30 02:43:04;;;;;;;5.32;1.92;;;14.40;99.90;;;;;;5072394;28;20119;-82
2023/07/30 02:45:30;;;;;;;6.25;2.13;;;14.40;99.90;;;;;;5056479;28;20127;-80
2023/07/30 02:47:56;;;;;;;7.85;2.55;;;14.30;99.90;;;;;;5074211;28;20039;-82
2023/07/30 02:50:22;;;;;;;7.55;2.05;;;14.30;99.90;;;;;;5073374;28;20090;-82
2023/07/30 02:52:47;;;;;;;4.50;2.08;;;14.30;99.90;;;;;;5073547;28;20135;-80
2023/07/30 02:55:13;;;;;;;4.35;1.77;;;14.20;99.90;;;;;;5073069;28;20102;-80
2023/07/30 02:57:39;;;;;;;5.95;2.00;;;14.20;99.90;;;;;;5074307;28;20071;-81
2023/07/30 03:00:05;;;;;;;5.85;1.90;;;14.20;99.90;;;;;;5074002;28;20476;-80
2023/07/30 03:02:31;;;;;;;3.78;1.90;;;14.20;99.90;;;;;;5074123;28;20062;-81
2023/07/30 03:04:56;;;;;;;6.47;2.08;;;14.20;99.90;;;;;;5074252;28;20052;-79
2023/07/30 03:07:22;;;;;;;4.50;2.10;;;14.10;99.90;;;;;;5073719;28;20260;-80
2023/07/30 03:09:48;;;;;;;6.75;2.25;;;14.10;99.90;;;;;;5074030;28;20044;-81
2023/07/30 03:12:14;;;;;;;7.00;2.28;;;14.10;99.90;;;;;;5073273;28;20041;-81
2023/07/30 03:14:40;;;;;;;4.32;2.25;;;14.10;99.90;;;;;;5073957;28;20089;-82
2023/07/30 03:17:06;;;;;;;4.78;1.98;;;14.10;99.90;;;;;;5073756;28;20094;-81
2023/07/30 03:19:32;;;;;;;5.53;1.92;;;14.00;99.90;;;;;;5056388;28;20037;-82
2023/07/30 03:21:57;;;;;;;5.93;1.88;;;14.10;99.90;;;;;;5073814;28;20500;-82
2023/07/30 03:24:23;;;;;;;6.07;2.08;;;14.00;99.90;;;;;;5071762;28;20372;-82
2023/07/30 03:26:49;;;;;;;5.88;2.30;;;14.00;99.90;;;;;;5071314;28;20061;-81
2023/07/30 03:29:15;;;;;;;6.72;2.00;;;14.10;99.90;;;;;;5071194;28;20056;-82
2023/07/30 03:31:41;;;;;;;5.50;2.00;;;14.00;99.90;;;;;;5071728;28;20072;-82
2023/07/30 03:34:07;;;;;;;5.40;2.20;;;14.00;99.90;;;;;;5071798;28;20134;-83
2023/07/30 03:36:33;;;;;;;6.05;2.40;;;14.00;99.90;;;;;;5073510;28;20045;-81
2023/07/30 03:38:59;;;;;;;4.90;2.40;;;14.00;99.90;;;;;;5072369;28;20044;-82
2023/07/30 03:41:25;;;;;;;6.85;2.55;;;14.00;99.90;;;;;;5072818;28;20032;-81
2023/07/30 03:43:50;;;;;;;4.45;2.00;;;14.00;99.90;;;;;;5072653;28;20041;-82
2023/07/30 03:46:16;;;;;;;7.10;2.45;;;14.00;99.90;;;;;;5072433;28;20089;-80
2023/07/30 03:48:42;;;;;;;6.10;2.65;;;14.00;99.90;;;;;;5071119;28;20120;-82
2023/07/30 03:51:08;;;;;;;3.95;2.00;;;13.90;99.90;;;;;;5072784;28;20362;-82
2023/07/30 03:53:34;;;;;;;6.57;2.85;;;13.90;99.90;;;;;;5072999;28;20115;-82
2023/07/30 03:56:00;;;;;;;6.35;3.17;;;14.00;99.90;;;;;;5071481;28;20036;-82
2023/07/30 03:58:25;;;;;;;5.65;2.80;;;13.90;99.90;;;;;;5073246;28;20029;-83
2023/07/30 04:00:51;;;;;;;6.20;2.35;;;14.00;99.90;;;;;;5072013;28;20469;-82
2023/07/30 04:03:16;;;;;;;8.65;2.97;;;14.00;99.90;;;;;;5072699;28;20431;-82
2023/07/30 04:05:42;;;;;;;7.00;2.53;;;14.00;99.90;;;;;;5072406;28;20047;-81
2023/07/30 04:08:08;;;;;;;4.18;2.28;;;14.00;99.90;;;;;;5072869;28;20044;-82
2023/07/30 04:10:33;;;;;;;8.07;2.85;;;14.00;99.90;;;;;;5072676;28;20083;-81
2023/07/30 04:12:59;;;;;;;6.90;2.95;;;14.00;99.90;;;;;;5072039;28;20059;-81
2023/07/30 04:15:25;;;;;;;6.80;2.75;;;14.00;99.90;;;;;;5072513;28;20193;-81
2023/07/30 04:17:51;;;;;;;5.05;2.47;;;14.00;99.90;;;;;;5072799;28;20024;-80
2023/07/30 04:20:17;;;;;;;5.60;2.67;;;14.00;99.90;;;;;;5072839;28;20492;-81
2023/07/30 04:22:44;;;;;;;7.88;3.10;;;14.00;99.90;;;;;;5073066;28;20046;-82
2023/07/30 04:25:12;;;;;;;6.20;2.35;;;14.00;99.90;;;;;;5074864;28;20036;-80
2023/07/30 04:27:38;;;;;;;9.95;3.20;;;14.00;99.90;;;;;;5074388;28;20036;-81
2023/07/30 04:30:07;;;;;;;6.82;2.85;;;14.10;99.90;;;;;;5075083;28;20044;-81
2023/07/30 04:32:33;;;;;;;6.07;3.00;;;14.10;99.90;;;;;;5074040;28;20079;-80
2023/07/30 04:35:00;;;;;;;6.57;2.75;;;14.20;99.90;;;;;;5072159;28;20068;-81
2023/07/30 04:37:25;;;;;;;6.32;2.75;;;14.20;99.90;;;;;;5072459;28;20415;-79
2023/07/30 04:39:51;;;;;;;6.47;2.63;;;14.20;99.90;;;;;;5072753;28;20079;-80
2023/07/30 04:42:17;;;;;;;6.38;2.72;;;14.20;99.90;;;;;;5072078;28;20479;-82
2023/07/30 04:44:43;;;;;;;8.25;2.85;;;14.20;99.90;;;;;;5071297;28;20044;-81
2023/07/30 04:47:09;;;;;;;8.00;3.28;;;14.20;99.90;;;;;;5071694;28;20047;-81
2023/07/30 04:49:36;;;;;;;7.00;2.65;;;14.20;99.90;;;;;;5071449;28;20036;-80
2023/07/30 04:52:03;;;;;;;5.75;2.80;;;14.30;99.90;;;;;;5072508;28;20040;-82
2023/07/30 04:54:28;;;;;;;7.03;2.70;;;14.30;99.90;;;;;;5072526;28;20044;-80
2023/07/30 04:56:54;;;;;;;8.32;3.20;;;14.40;99.90;;;;;;5072609;28;20105;-81
2023/07/30 04:59:20;;;;;;;8.50;2.78;;;14.40;99.90;;;;;;5072262;28;20048;-80
2023/07/30 05:01:46;;;;;;;7.10;2.95;;;14.50;99.90;;;;;;5072369;28;20054;-79
2023/07/30 05:04:12;;;;;;;7.95;3.03;;;14.50;99.90;;;;;;5072414;28;20523;-82
2023/07/30 05:06:37;;;;;;;6.63;2.90;;;14.50;99.90;;;;;;5072302;28;20044;-81
2023/07/30 05:09:03;;;;;;;8.90;2.85;;;14.60;99.90;;;;;;5071717;28;20039;-81
2023/07/30 05:11:29;;;;;;;6.78;2.80;;;14.60;99.90;;;;;;5071591;28;20040;-82
2023/07/30 05:13:54;;;;;;;7.28;2.80;;;14.60;99.90;;;;;;5054057;28;20045;-82
2023/07/30 05:16:20;;;;;;;7.10;3.10;;;14.60;99.90;;;;;;5071338;28;20052;-81
2023/07/30 05:18:46;;;;;;;6.65;3.05;;;14.60;99.90;;;;;;5071241;28;20041;-77
2023/07/30 05:21:12;;;;;;;6.95;3.00;;;14.60;99.90;;;;;;5072190;28;20041;-81
2023/07/30 05:23:38;;;;;;;6.30;2.50;;;14.70;99.90;;;;;;5071803;28;20135;-81
2023/07/30 05:26:03;;;;;;;7.78;3.05;;;14.80;99.90;;;;;;5073599;28;20041;-81
2023/07/30 05:28:29;;;;;;;7.75;3.30;;;14.80;99.90;;;;;;5075537;28;20041;-80
2023/07/30 05:30:55;;;;;;;7.30;3.60;;;14.90;99.90;;;;;;5075987;28;20102;-79
2023/07/30 05:33:20;;;;;;;8.43;3.25;;;14.90;99.90;;;;;;5075882;28;20044;-80
2023/07/30 05:35:47;;;;;;;7.63;2.83;;;15.00;99.90;;;;;;5075773;28;20071;-80
2023/07/30 05:38:13;;;;;;;5.40;3.10;;;15.00;99.90;;;;;;5075252;28;20036;-81
2023/07/30 05:40:39;;;;;;;7.05;3.00;;;15.00;99.90;;;;;;5074988;28;20071;-82
2023/07/30 05:43:04;;;;;;;8.93;3.15;;;15.00;99.90;;;;;;5075230;28;20035;-79
2023/07/30 05:45:30;;;;;;;7.32;3.38;;;15.00;99.90;;;;;;5075842;28;20044;-82
2023/07/30 05:47:56;;;;;;;6.70;2.85;;;15.10;99.90;;;;;;5074098;28;20036;-82
2023/07/30 05:50:21;;;;;;;7.78;3.28;;;15.10;99.90;;;;;;5075229;28;20036;-79
2023/07/30 05:52:47;;;;;;;9.88;3.00;;;15.20;99.90;;;;;;5075605;28;20480;-81
2023/07/30 05:55:13;;;;;;;9.27;3.25;;;15.20;99.90;;;;;;5075216;28;20142;-81
2023/07/30 05:57:38;;;;;;;9.30;3.60;;;15.20;99.90;;;;;;5075237;28;20055;-79
2023/07/30 06:00:05;;;;;;;7.10;3.35;;;15.20;99.90;;;;;;5075281;28;20058;-79
2023/07/30 06:02:30;;;;;;;11.32;3.78;;;15.20;99.90;;;;;;5074255;28;20055;-80
2023/07/30 06:04:56;;;;;;;9.05;3.58;;;15.20;99.90;;;;;;5075222;28;20040;-80
2023/07/30 06:07:21;;;;;;;6.43;3.40;;;15.20;99.90;;;;;;5074914;28;20036;-80
2023/07/30 06:09:47;;;;;;;9.27;3.40;;;15.30;99.90;;;;;;5074892;28;20128;-81
2023/07/30 06:12:13;;;;;;;7.68;3.22;;;15.30;99.90;;;;;;5073386;28;20070;-82
2023/07/30 06:14:38;;;;;;;11.23;3.40;;;15.30;99.90;;;;;;5073780;28;20072;-81
2023/07/30 06:17:04;;;;;;;11.75;3.60;;;15.40;99.90;;;;;;5074930;28;20044;-79
2023/07/30 06:19:30;;;;;;;9.85;3.40;;;15.40;99.90;;;;;;5074687;28;20107;-78
2023/07/30 06:21:56;;;;;;;7.57;3.38;;;15.50;99.90;;;;;;5074955;28;20036;-79
2023/07/30 06:24:21;;;;;;;9.45;3.72;;;15.50;99.90;;;;;;5074801;28;20113;-82
2023/07/30 06:26:47;;;;;;;6.38;3.30;;;15.60;99.90;;;;;;5073646;28;20049;-80
2023/07/30 06:29:13;;;;;;;10.35;3.70;;;15.60;99.90;;;;;;5074653;28;20078;-80
2023/07/30 06:31:38;;;;;;;10.32;3.50;;;15.70;99.90;;;;;;5074814;28;20123;-80
2023/07/30 06:34:04;;;;;;;12.05;4.13;;;15.70;99.90;;;;;;5074561;28;20048;-80
2023/07/30 06:36:30;;;;;;;8.45;3.45;;;15.80;99.90;;;;;;5074334;28;20036;-80
2023/07/30 06:38:55;;;;;;;8.95;3.50;;;15.90;99.90;;;;;;5074790;28;20036;-81
2023/07/30 06:41:21;;;;;;;10.40;3.80;;;16.00;99.90;;;;;;5074245;28;20094;-70
2023/07/30 06:43:47;;;;;;;9.32;3.83;;;16.10;99.90;;;;;;5074949;28;20042;-68
2023/07/30 06:46:13;;;;;;;9.75;3.97;;;16.10;99.90;;;;;;5074455;28;20078;-68
2023/07/30 06:48:38;;;;;;;8.98;3.97;;;16.10;99.90;;;;;;5074543;28;20072;-69
2023/07/30 06:51:10;;;;;;;8.98;3.70;;;16.10;99.90;;;;;;5073051;28;20546;-70
2023/07/30 06:53:36;;;;;;;8.77;4.13;;;16.10;99.90;;;;;;5073168;28;20079;-70
2023/07/30 06:56:03;;;;;;;9.02;3.70;;;16.20;99.90;;;;;;5074093;28;20072;-69
2023/07/30 06:58:28;;;;;;;7.43;3.30;;;16.20;99.90;;;;;;5074377;28;20112;-69
2023/07/30 07:00:54;;;;;;;9.00;3.63;;;16.20;99.90;;;;;;5074156;28;20408;-70
2023/07/30 07:03:20;;;;;;;11.25;4.13;;;16.20;99.90;;;;;;5073851;28;20032;-69
2023/07/30 07:05:55;;;;;;;10.88;4.10;;;16.30;99.90;;;;;;5074032;28;20141;-70
2023/07/30 07:08:22;;;;;;;11.30;3.42;;;16.30;99.90;;;;;;5072917;28;20040;-69
2023/07/30 07:10:48;;;;;;;13.50;4.53;;;16.30;99.90;;;;;;5073870;28;20046;-70
2023/07/30 07:13:16;;;;;;;8.07;3.60;;;16.40;99.90;;;;;;5072220;28;20415;-68
2023/07/30 07:15:43;;;;;;;10.18;3.67;;;16.50;99.90;;;;;;5073589;28;20540;-69
2023/07/30 07:18:09;;;;;;;10.50;3.67;;;16.60;99.90;;;;;;5073705;28;20044;-68
2023/07/30 07:20:36;;;;;;;7.93;3.58;;;16.70;99.90;;;;;;5073428;28;20499;-67
2023/07/30 07:23:01;;;;;;;8.13;3.65;;;16.80;99.90;;;;;;5073825;28;20550;-68
2023/07/30 07:25:27;;;;;;;7.30;3.30;;;16.90;99.90;;;;;;5073744;28;20032;-69
2023/07/30 07:27:53;;;;;;;7.47;3.25;;;16.90;99.90;;;;;;5073431;28;20066;-69
2023/07/30 07:30:18;;;;;;;6.80;3.28;;;16.90;99.90;;;;;;5063398;28;20049;-69
2023/07/30 07:32:44;;;;;;;7.93;3.20;;;17.00;99.90;;;;;;5065715;28;20492;-69
2023/07/30 07:35:10;;;;;;;8.25;3.20;;;17.00;99.90;;;;;;5061411;28;20038;-71
2023/07/30 07:37:35;;;;;;;5.95;2.75;;;17.00;99.90;;;;;;5061420;28;20066;-70
2023/07/30 07:40:03;;;;;;;9.95;3.50;;;17.10;99.90;;;;;;5053703;28;20320;-71
2023/07/30 07:42:30;;;;;;;8.77;3.20;;;17.10;99.90;;;;;;5066393;28;20648;-70
2023/07/30 07:44:56;;;;;;;7.35;3.33;;;17.00;99.90;;;;;;5066082;28;20445;-71
2023/07/30 07:47:21;;;;;;;9.43;3.17;;;17.00;99.90;;;;;;5069073;28;20112;-71
2023/07/30 07:49:48;;;;;;;9.80;3.38;;;17.00;99.90;;;;;;5070064;28;20075;-71
2023/07/30 07:52:14;;;;;;;7.63;3.00;;;16.90;99.90;;;;;;5063572;28;20418;-71
2023/07/30 07:54:41;;;;;;;10.65;3.38;;;17.00;99.90;;;;;;5051942;28;20063;-68
2023/07/30 07:57:07;;;;;;;8.38;3.50;;;17.00;99.90;;;;;;5053655;28;20044;-68
2023/07/30 07:59:33;;;;;;;9.55;3.35;;;17.10;99.90;;;;;;5049999;28;20048;-69
2023/07/30 08:01:59;;;;;;;7.65;3.45;;;17.30;99.90;;;;;;5065219;28;20398;-70
2023/07/30 08:04:24;;;;;;;9.35;3.53;;;17.60;99.90;;;;;;5066093;28;20217;-71
2023/07/30 08:06:50;;;;;;;8.02;3.45;;;17.60;99.90;;;;;;5069224;28;20127;-70
2023/07/30 08:09:16;;;;;;;9.70;3.20;;;17.70;99.90;;;;;;5058519;28;20102;-68
2023/07/30 08:11:41;;;;;;;8.07;3.55;;;17.80;99.90;;;;;;5057833;28;20037;-69
2023/07/30 08:14:07;;;;;;;7.85;3.47;;;17.90;99.90;;;;;;5071358;28;20044;-68
2023/07/30 08:16:33;;;;;;;6.13;3.05;;;18.00;99.90;;;;;;5070987;28;20044;-68
2023/07/30 08:18:58;;;;;;;8.43;3.35;;;18.10;99.90;;;;;;5071534;28;20204;-68
2023/07/30 08:21:25;;;;;;;8.68;3.25;;;18.10;99.90;;;;;;5070335;28;20115;-68
2023/07/30 08:23:50;;;;;;;7.57;3.15;;;18.10;99.90;;;;;;5071882;28;20044;-68
2023/07/30 08:26:16;;;;;;;9.00;3.45;;;18.00;99.90;;;;;;5071254;28;20041;-69
2023/07/30 08:28:42;;;;;;;7.70;3.40;;;18.00;99.90;;;;;;5071549;28;20480;-68
2023/07/30 08:31:08;;;;;;;9.40;3.47;;;18.00;99.90;;;;;;5069113;28;20064;-70
2023/07/30 08:33:33;;;;;;;6.88;2.97;;;18.10;99.90;;;;;;5071405;28;20549;-69
2023/07/30 08:35:59;;;;;;;7.32;2.88;;;18.20;99.90;;;;;;5071253;28;20066;-71
2023/07/30 08:38:25;;;;;;;7.13;2.75;;;18.20;99.90;;;;;;5071038;28;20040;-67
2023/07/30 08:40:51;;;;;;;6.32;2.35;;;18.20;99.90;;;;;;5069968;28;20453;-71
2023/07/30 08:43:20;;;;;;;6.78;2.67;;;18.30;99.90;;;;;;5070991;28;20197;-70
2023/07/30 08:45:46;;;;;;;5.13;2.67;;;18.30;99.90;;;;;;5070912;28;20040;-70
2023/07/30 08:48:12;;;;;;;6.28;2.50;;;18.40;99.90;;;;;;5071213;28;20043;-70
2023/07/30 08:50:38;;;;;;;7.03;2.85;;;18.60;99.90;;;;;;5071043;28;20055;-71
2023/07/30 08:53:05;;;;;;;7.25;2.38;;;18.80;99.90;;;;;;5070863;28;20037;-70
2023/07/30 08:55:34;;;;;;;5.40;2.10;;;18.90;99.90;;;;;;5071164;28;20048;-68
2023/07/30 08:58:04;;;;;;;7.15;3.03;;;19.00;99.90;;;;;;5071243;28;20091;-69
2023/07/30 09:00:36;;;;;;;8.15;2.45;;;19.00;99.90;;;;;;5072505;28;20045;-69
2023/07/30 09:03:04;;;;;;;10.77;3.25;;;19.00;99.90;;;;;;5075224;28;20047;-70
2023/07/30 09:05:30;;;;;;;6.03;2.60;;;18.90;99.90;;;;;;5075045;28;20044;-68
2023/07/30 09:07:57;;;;;;;5.72;2.70;;;19.00;99.90;;;;;;5074982;28;20112;-68
2023/07/30 09:10:23;;;;;;;7.20;2.83;;;19.00;99.90;;;;;;5074801;28;20146;-69
2023/07/30 09:12:59;;;;;;;6.38;2.65;;;19.30;99.90;;;;;;5074483;28;20093;-71
2023/07/30 09:15:38;;;;;;;7.63;2.78;;;19.40;99.90;;;;;;5073838;28;20052;-70
2023/07/30 09:18:08;;;;;;;6.32;3.20;;;19.20;99.90;;;;;;5073916;28;20267;-70
2023/07/30 09:20:41;;;;;;;7.18;2.72;;;19.00;99.90;;;;;;5074791;28;20044;-70
2023/07/30 09:23:08;;;;;;;8.23;3.95;;;18.70;99.90;;;;;;5073542;28;20108;-70
2023/07/30 09:25:35;;;;;;;8.32;4.25;;;18.60;99.90;;;;;;5074523;28;20037;-70
2023/07/30 09:28:01;;;;;;;6.15;3.83;;;18.50;99.90;;;;;;5073380;28;20044;-71
2023/07/30 09:30:27;;;;;;;6.93;3.70;;;18.60;99.90;;;;;;5073842;28;20054;-70
2023/07/30 09:32:55;;;;;;;8.82;3.78;;;18.60;99.90;;;;;;5074889;28;20080;-70
2023/07/30 09:35:24;;;;;;;7.00;3.42;;;18.60;99.90;;;;;;5074606;28;20098;-71
2023/07/30 09:37:57;;;;;;;8.85;3.63;;;18.60;99.90;;;;;;5073668;28;20047;-70
2023/07/30 09:40:31;;;;;;;8.82;3.20;;;18.60;99.90;;;;;;5074111;28;20041;-71
2023/07/30 09:42:57;;;;;;;5.78;3.20;;;18.60;99.90;;;;;;5074113;28;20362;-74
2023/07/30 09:45:27;;;;;;;7.13;3.40;;;18.60;99.90;;;;;;5074251;28;20086;-73
2023/07/30 09:47:56;;;;;;;7.80;3.63;;;18.60;99.90;;;;;;5072824;28;20098;-71
2023/07/30 09:50:22;;;;;;;8.38;3.60;;;18.50;99.90;;;;;;5072902;28;20044;-71
2023/07/30 09:52:49;;;;;;;7.50;3.33;;;18.50;99.90;;;;;;5073782;28;20044;-72
2023/07/30 09:55:15;;;;;;;5.97;2.70;;;18.40;99.90;;;;;;5073325;28;20040;-71
2023/07/30 09:57:41;;;;;;;7.43;3.00;;;18.30;99.90;;;;;;5074272;28;20066;-71
2023/07/30 10:00:11;;;;;;;6.18;2.65;;;18.20;99.90;;;;;;5073918;28;20126;-69
2023/07/30 10:02:40;;;;;;;6.53;2.72;;;18.10;99.90;;;;;;5073915;28;20477;-70
2023/07/30 10:05:18;;;;;;;3.83;2.40;;;18.00;99.90;;;;;;5074224;28;20040;-69
2023/07/30 10:08:02;;;;;;;6.50;3.03;;;18.00;99.90;;;;;;5074167;28;20461;-71
2023/07/30 10:10:29;;;;;;;8.10;3.33;;;17.80;99.90;;;;;;5073858;28;20048;-70
2023/07/30 10:12:59;;;;;;;6.30;2.95;;;17.60;99.90;;;;;;5072384;28;20133;-76
2023/07/30 10:15:25;;;;;;;5.43;2.85;;;17.40;99.90;;;;;;5073254;28;20111;-74
2023/07/30 10:17:52;;;;;;;7.65;2.10;;;17.00;99.90;;;;;;5073808;28;20045;-83
2023/07/30 10:20:25;;;;;;;5.05;1.77;;;16.20;99.90;;;;;;5073590;28;20044;-76
2023/07/30 10:22:55;;;;;;;2.92;1.70;;;15.20;99.90;;;;;;5072556;28;20063;-76
2023/07/30 10:25:48;;;;;;;3.50;1.48;;;14.50;99.90;;;;;;5073470;28;20036;-74
2023/07/30 10:28:29;;;;;;;5.75;1.40;;;14.10;99.90;;;;;;5073273;28;20041;-73
2023/07/30 10:31:04;;;;;;;2.67;1.20;;;14.00;99.90;;;;;;5073342;28;20098;-74
2023/07/30 10:33:49;;;;;;;5.75;1.60;;;14.00;99.90;;;;;;5053633;28;20049;-75
2023/07/30 10:36:18;;;;;;;3.30;1.40;;;14.10;99.90;;;;;;5055160;28;20124;-74
2023/07/30 10:38:45;;;;;;;5.28;1.50;;;14.20;99.90;;;;;;5073813;28;20036;-77
2023/07/30 10:41:13;;;;;;;5.38;1.83;;;14.20;99.90;;;;;;5072846;28;20040;-75
2023/07/30 10:43:50;;;;;;;4.55;1.80;;;14.30;99.90;;;;;;5072571;28;20075;-75
2023/07/30 10:46:19;;;;;;;5.82;2.17;;;14.30;99.90;;;;;;5073177;28;20040;-77
2023/07/30 10:48:47;;;;;;;5.78;2.72;;;14.40;99.90;;;;;;5072987;28;20415;-75
2023/07/30 10:51:18;;;;;;;5.63;1.73;;;14.50;99.90;;;;;;5071598;28;20111;-76
2023/07/30 10:53:48;;;;;;;5.57;2.30;;;14.50;99.90;;;;;;5073295;28;20075;-76
2023/07/30 10:56:16;;;;;;;4.47;2.35;;;14.50;99.90;;;;;;5072751;28;20040;-77
2023/07/30 10:58:43;;;;;;;5.28;2.10;;;14.60;99.90;;;;;;5067697;28;20075;-75
2023/07/30 11:01:09;;;;;;;7.18;2.15;;;14.60;99.90;;;;;;5072419;28;20041;-79
2023/07/30 11:03:36;;;;;;;4.40;2.05;;;14.60;99.90;;;;;;5073569;28;20135;-80
2023/07/30 11:06:02;;;;;;;5.35;2.22;;;14.60;99.90;;;;;;5073418;28;20070;-77
2023/07/30 11:08:40;;;;;;;3.50;2.10;;;14.70;99.90;;;;;;5073469;28;20046;-77
2023/07/30 11:11:07;;;;;;;4.05;2.20;;;14.80;99.90;;;;;;5073640;28;20072;-77
2023/07/30 11:13:41;;;;;;;6.53;2.72;;;15.20;99.90;;;;;;5072936;28;20036;-75
2023/07/30 11:16:08;;;;;;;7.05;2.88;;;15.70;99.90;;;;;;5074040;28;20036;-76
2023/07/30 11:18:35;;;;;;;5.00;2.35;;;16.10;99.90;;;;;;5073747;28;20036;-76
2023/07/30 11:21:11;;;;;;;5.20;2.83;;;16.40;99.90;;;;;;5072916;28;20093;-80
2023/07/30 11:23:39;;;;;;;6.88;2.33;;;16.80;99.90;;;;;;5072697;28;20043;-78
2023/07/30 11:26:08;;;;;;;5.95;2.40;;;17.00;99.90;;;;;;5073186;28;20089;-78
2023/07/30 11:28:35;;;;;;;5.95;2.42;;;17.20;99.90;;;;;;5073338;28;20107;-78
2023/07/30 11:31:07;;;;;;;4.43;1.98;;;17.40;99.90;;;;;;5073963;28;20182;-76
2023/07/30 11:33:36;;;;;;;5.80;2.20;;;17.70;99.90;;;;;;5073094;28;20055;-77
2023/07/30 11:36:03;;;;;;;7.35;2.38;;;17.90;99.90;;;;;;5072896;28;20412;-76
2023/07/30 11:38:31;;;;;;;4.95;2.05;;;17.90;99.90;;;;;;5073542;28;20401;-79
2023/07/30 11:40:57;;;;;;;5.32;1.55;;;17.90;99.90;;;;;;5070189;28;20044;-78
2023/07/30 11:43:23;;;;;;;5.00;1.70;;;17.90;99.90;;;;;;5072256;28;20059;-76
2023/07/30 11:46:05;;;;;;;4.55;1.40;;;18.20;99.90;;;;;;5072646;28;20036;-76
2023/07/30 11:48:31;;;;;;;2.85;1.27;;;18.30;99.90;;;;;;5071165;28;20036;-77
2023/07/30 11:50:57;;;;;;;5.00;1.30;;;18.30;99.90;;;;;;5069608;28;20040;-77
2023/07/30 11:53:43;;;;;;;3.00;1.10;;;18.50;99.90;;;;;;5072773;28;20611;-77
2023/07/30 11:56:35;;;;;;;3.45;1.40;;;18.60;99.90;;;;;;5071820;28;20446;-77
2023/07/30 11:59:06;;;;;;;4.78;1.50;;;18.80;99.90;;;;;;5071451;28;20137;-78
2023/07/30 12:01:34;;;;;;;3.92;1.10;;;19.10;99.90;;;;;;5071458;28;20052;-78
2023/07/30 12:04:01;;;;;;;3.85;1.27;;;19.40;99.90;;;;;;5072560;28;20384;-78
2023/07/30 12:06:45;;;;;;;3.28;1.35;;;19.60;99.90;;;;;;5073513;28;20436;-77
2023/07/30 12:09:19;;;;;;;4.15;1.38;;;19.70;99.90;;;;;;5071414;28;20028;-78
2023/07/30 12:12:01;;;;;;;3.63;1.20;;;19.80;99.90;;;;;;5069137;28;20044;-75
2023/07/30 12:14:50;;;;;;;5.00;1.15;;;20.00;99.90;;;;;;5071072;28;20097;-80
2023/07/30 12:17:15;;;;;;;5.43;1.45;;;20.10;99.90;;;;;;5072121;28;20526;-78
2023/07/30 12:19:42;;;;;;;3.33;1.10;;;20.10;99.90;;;;;;5072164;28;20044;-76
2023/07/30 12:22:07;;;;;;;4.55;1.38;;;20.00;99.90;;;;;;5072177;28;20044;-76
2023/07/30 12:24:33;;;;;;;6.50;1.10;;;19.90;99.90;;;;;;5071796;28;20049;-77
2023/07/30 12:26:59;;;;;;;4.25;1.10;;;19.80;99.90;;;;;;5070427;28;20051;-75
2023/07/30 12:29:25;;;;;;;4.15;1.10;;;19.70;99.90;;;;;;5071457;28;20123;-77
2023/07/30 12:31:55;;;;;;;2.58;0.95;;;19.60;99.90;;;;;;5071833;28;20357;-78
2023/07/30 12:34:22;;;;;;;3.50;1.30;;;19.50;99.90;;;;;;5067933;28;20177;-79
2023/07/30 12:36:48;;;;;;;3.95;1.20;;;19.50;99.90;;;;;;5071951;28;20465;-76
2023/07/30 12:39:14;;;;;;;5.47;1.23;;;19.40;99.90;;;;;;5070747;28;20024;-77
2023/07/30 12:41:40;;;;;;;3.33;1.20;;;19.50;99.90;;;;;;5071415;28;20033;-77
2023/07/30 12:44:05;;;;;;;4.65;1.00;;;19.70;99.90;;;;;;5071661;28;20041;-76
2023/07/30 12:46:32;;;;;;;6.35;1.33;;;20.00;99.90;;;;;;5064438;28;20043;-77